Naugatuck River @ Beacon Falls, Ct

Naugatuck River at Beacon Falls
 Total Drainage Area: 259 sq. miles 
 Drainage Area Controlled by Corps Dams: 152 sq. miles (59%) 
 Warning Flow/Stage: 3,990 cfs / 7.0 feet 
 Flood Flow/Stage: 9,950 cfs / 10.7 feet 
Date Time
(Eastern)
Stage
(ft)
Flow
(cfs)
CSM
(cfs / sq. mi.)
Jun-25 01:30 am 1.96 311 1.2
Jun-25 12:30 am 1.99 321 1.2
Jun-24 11:30 pm 2.02 331 1.3
Jun-24 10:30 pm 2.03 335 1.3
Jun-24 09:30 pm 2.05 342 1.3
Jun-24 08:30 pm 2.07 349 1.4
Jun-24 07:30 pm 2.09 356 1.4
Jun-24 06:30 pm 2.12 366 1.4
Jun-24 05:30 pm 2.16 379 1.5
Jun-24 04:30 pm 2.21 396 1.5
Jun-24 03:30 pm 2.25 410 1.6
Jun-24 02:30 pm 2.29 423 1.6
Jun-24 01:30 pm 2.33 438 1.7
Jun-24 12:30 pm 2.37 452 1.7
Jun-24 11:30 am 2.42 470 1.8
Jun-24 10:30 am 2.46 485 1.9
Jun-24 09:30 am 2.49 496 1.9
Jun-24 08:30 am 2.49 496 1.9
Jun-24 07:30 am 2.46 485 1.9
Jun-24 06:30 am 2.42 470 1.8
Jun-24 05:30 am 2.44 478 1.8
Jun-24 04:30 am 2.50 500 1.9
Jun-24 03:30 am 2.59 535 2.1
Jun-24 02:30 am 2.67 567 2.2
Jun-24 01:30 am 2.77 609 2.4
Report Generated June 25, 2024 02:19 am